createdAt,value
2023-04-16T00:00:29.406Z,98.48
2023-04-16T00:01:29.460Z,90.22
2023-04-16T00:02:29.636Z,97.96
2023-04-16T00:03:29.702Z,95.22
2023-04-16T00:04:29.686Z,105.18
2023-04-16T00:05:29.652Z,112.51
2023-04-16T00:06:29.642Z,121.16
2023-04-16T00:07:29.704Z,116.33
2023-04-16T00:08:29.727Z,118.67
2023-04-16T00:09:29.721Z,116.86
2023-04-16T00:10:29.780Z,120.13
2023-04-16T00:11:29.819Z,124.24
2023-04-16T00:12:29.841Z,122.38
2023-04-16T00:13:29.835Z,125.71
2023-04-16T00:14:29.913Z,126.09
2023-04-16T00:15:29.919Z,117.09
2023-04-16T00:16:29.930Z,122.13
2023-04-16T00:17:29.986Z,126.41
2023-04-16T00:18:29.978Z,119.08
2023-04-16T00:19:29.980Z,115.97
2023-04-16T00:20:30.112Z,121.97
2023-04-16T00:21:30.052Z,129.69
2023-04-16T00:22:30.064Z,137.00
2023-04-16T00:23:30.071Z,134.29
2023-04-16T00:24:30.085Z,141.62
2023-04-16T00:25:30.113Z,139.95
2023-04-16T00:26:30.133Z,145.33
2023-04-16T00:27:30.127Z,146.19
2023-04-16T00:28:30.155Z,144.76
2023-04-16T00:29:30.211Z,144.64
2023-04-16T00:30:30.222Z,149.64
2023-04-16T00:31:30.391Z,144.69
2023-04-16T00:32:30.303Z,136.87
2023-04-16T00:33:30.285Z,138.99
2023-04-16T00:34:30.295Z,122.43
2023-04-16T00:35:30.298Z,130.56
2023-04-16T00:36:30.353Z,126.22
2023-04-16T00:37:30.378Z,132.20
2023-04-16T00:38:30.449Z,126.94
2023-04-16T00:39:30.455Z,131.63
2023-04-16T00:40:30.432Z,133.19
2023-04-16T00:41:30.441Z,127.73
2023-04-16T00:42:30.545Z,131.47
2023-04-16T00:43:30.467Z,137.82
2023-04-16T00:44:30.522Z,142.69
2023-04-16T00:45:30.576Z,137.15
2023-04-16T00:46:30.615Z,137.43
2023-04-16T00:47:30.627Z,117.81
2023-04-16T00:48:30.592Z,118.88
2023-04-16T00:49:30.658Z,116.46
2023-04-16T00:50:30.601Z,109.80
2023-04-16T00:51:30.616Z,122.73
2023-04-16T00:52:30.602Z,115.38
2023-04-16T00:53:30.635Z,123.55
2023-04-16T00:54:30.625Z,123.80
2023-04-16T00:55:30.658Z,122.09
2023-04-16T00:56:30.686Z,126.75
2023-04-16T00:57:30.642Z,118.62
2023-04-16T00:58:30.652Z,117.14
2023-04-16T00:59:30.656Z,119.43
2023-04-16T01:00:30.678Z,122.68
2023-04-16T01:01:30.668Z,126.71
2023-04-16T01:02:30.751Z,128.98
2023-04-16T01:03:30.886Z,127.12
2023-04-16T01:04:30.827Z,131.44
2023-04-16T01:05:30.587Z,122.46
2023-04-16T01:06:30.608Z,131.02
2023-04-16T01:07:30.627Z,126.69
2023-04-16T01:08:30.619Z,123.20
2023-04-16T01:09:30.636Z,128.98
2023-04-16T01:10:30.712Z,127.65
2023-04-16T01:11:30.557Z,131.42
2023-04-16T01:12:30.640Z,135.32
2023-04-16T01:13:30.607Z,137.05
2023-04-16T01:14:30.630Z,144.77
2023-04-16T01:15:30.587Z,144.50
2023-04-16T01:16:30.639Z,141.19
2023-04-16T01:17:30.593Z,144.30
2023-04-16T01:18:30.543Z,149.41
2023-04-16T01:19:30.600Z,153.84
2023-04-16T01:20:30.603Z,152.36
2023-04-16T01:21:30.565Z,165.20
2023-04-16T01:22:30.541Z,154.66
2023-04-16T01:23:30.578Z,152.32
2023-04-16T01:24:30.591Z,159.02
2023-04-16T01:25:30.545Z,159.70
2023-04-16T01:26:30.533Z,162.16
2023-04-16T01:27:30.549Z,163.62
2023-04-16T01:28:30.563Z,166.05
2023-04-16T01:29:30.553Z,165.59
2023-04-16T01:30:30.535Z,164.70
2023-04-16T01:31:30.625Z,165.87
2023-04-16T01:32:30.659Z,162.32
2023-04-16T01:33:30.547Z,167.77
2023-04-16T01:34:30.569Z,171.05
2023-04-16T01:35:30.580Z,176.86
2023-04-16T01:36:30.506Z,169.84
2023-04-16T01:37:30.577Z,166.04
2023-04-16T01:38:30.513Z,161.13
2023-04-16T01:39:30.591Z,155.09
2023-04-16T01:40:30.533Z,152.96
2023-04-16T01:41:30.553Z,150.88
2023-04-16T01:42:30.525Z,147.31
2023-04-16T01:43:30.619Z,152.72
2023-04-16T01:44:30.522Z,150.55
2023-04-16T01:45:30.563Z,146.97
2023-04-16T01:46:30.572Z,143.79
2023-04-16T01:47:30.573Z,150.54
2023-04-16T01:48:30.539Z,147.78
2023-04-16T01:49:30.534Z,147.08
2023-04-16T01:50:30.566Z,153.09
2023-04-16T01:51:30.571Z,145.12
2023-04-16T01:52:30.570Z,142.58
2023-04-16T01:53:30.541Z,144.54
2023-04-16T01:54:30.589Z,139.28
2023-04-16T01:55:30.583Z,145.26
2023-04-16T01:56:30.598Z,143.29
2023-04-16T01:57:30.571Z,145.07
2023-04-16T01:58:30.644Z,134.92
2023-04-16T01:59:30.638Z,137.39
2023-04-16T02:00:30.561Z,138.83
2023-04-16T02:01:30.654Z,140.92
2023-04-16T02:02:30.667Z,138.62
2023-04-16T02:03:30.744Z,133.21
2023-04-16T02:04:30.601Z,134.73
2023-04-16T02:05:30.582Z,149.23
2023-04-16T02:06:30.599Z,140.03
2023-04-16T02:07:30.602Z,144.48
2023-04-16T02:08:30.598Z,141.37
2023-04-16T02:09:30.618Z,143.81
2023-04-16T02:10:30.618Z,139.98
2023-04-16T02:11:30.650Z,134.72
2023-04-16T02:12:30.630Z,132.55
2023-04-16T02:13:30.599Z,121.51
2023-04-16T02:14:30.619Z,123.51
2023-04-16T02:15:30.668Z,130.63
2023-04-16T02:16:30.664Z,127.31
2023-04-16T02:17:30.682Z,130.51
2023-04-16T02:18:30.686Z,139.13
2023-04-16T02:19:30.648Z,138.88
2023-04-16T02:20:30.651Z,136.28
2023-04-16T02:21:30.665Z,140.74
2023-04-16T02:22:30.668Z,131.43
2023-04-16T02:23:30.678Z,140.19
2023-04-16T02:24:30.725Z,139.39
2023-04-16T02:25:30.688Z,131.14
2023-04-16T02:26:30.710Z,140.12
2023-04-16T02:27:30.709Z,133.82
2023-04-16T02:28:30.816Z,142.03
2023-04-16T02:29:30.725Z,135.13
2023-04-16T02:30:30.717Z,134.40
2023-04-16T02:31:30.761Z,129.54
2023-04-16T02:32:30.783Z,129.56
2023-04-16T02:33:30.744Z,132.43
2023-04-16T02:34:30.751Z,132.23
2023-04-16T02:35:30.711Z,130.13
2023-04-16T02:36:30.767Z,124.75
2023-04-16T02:37:30.771Z,125.62
2023-04-16T02:38:30.791Z,123.43
2023-04-16T02:39:30.804Z,115.33
2023-04-16T02:40:30.743Z,113.67
2023-04-16T02:41:30.801Z,109.52
2023-04-16T02:42:30.811Z,105.50
2023-04-16T02:43:30.802Z,116.51
2023-04-16T02:44:30.762Z,111.14
2023-04-16T02:45:30.790Z,101.80
2023-04-16T02:46:30.938Z,95.78
2023-04-16T02:47:30.860Z,97.99
2023-04-16T02:48:30.804Z,93.35
2023-04-16T02:49:30.850Z,106.92
2023-04-16T02:50:30.815Z,105.35
2023-04-16T02:51:30.882Z,103.76
2023-04-16T02:52:30.864Z,104.72
2023-04-16T02:53:30.887Z,110.07
2023-04-16T02:54:30.885Z,111.88
2023-04-16T02:55:30.902Z,117.12
2023-04-16T02:56:30.848Z,117.46
2023-04-16T02:57:30.922Z,122.05
2023-04-16T02:58:30.909Z,121.82
2023-04-16T02:59:30.926Z,120.82
2023-04-16T03:00:30.975Z,130.64
2023-04-16T03:01:31.009Z,123.97
2023-04-16T03:02:31.142Z,129.83
2023-04-16T03:03:30.999Z,134.63
2023-04-16T03:04:31.040Z,123.27
2023-04-16T03:05:31.001Z,133.03
2023-04-16T03:06:30.993Z,134.21
2023-04-16T03:07:31.034Z,137.88
2023-04-16T03:08:31.018Z,128.49
2023-04-16T03:09:31.036Z,136.09
2023-04-16T03:10:31.040Z,128.80
2023-04-16T03:11:31.043Z,140.02
2023-04-16T03:12:31.109Z,144.70
2023-04-16T03:13:31.065Z,138.71
2023-04-16T03:14:31.130Z,149.41
2023-04-16T03:15:31.183Z,137.62
2023-04-16T03:16:31.127Z,140.66
2023-04-16T03:17:31.161Z,135.93
2023-04-16T03:18:31.139Z,131.92
2023-04-16T03:19:31.159Z,143.64
2023-04-16T03:20:31.186Z,149.44
2023-04-16T03:21:31.189Z,144.90
2023-04-16T03:22:31.183Z,142.55
2023-04-16T03:23:31.188Z,137.21
2023-04-16T03:24:31.204Z,149.07
2023-04-16T03:25:31.190Z,150.53
2023-04-16T03:26:31.266Z,151.78
2023-04-16T03:27:31.249Z,152.84
2023-04-16T03:28:31.252Z,149.93
2023-04-16T03:29:31.240Z,149.28
2023-04-16T03:30:31.287Z,154.77
2023-04-16T03:31:31.349Z,153.75
2023-04-16T03:32:31.353Z,157.73
2023-04-16T03:33:31.313Z,166.23
2023-04-16T03:34:31.289Z,168.72
2023-04-16T03:35:31.309Z,162.70
2023-04-16T03:36:31.379Z,169.00
2023-04-16T03:37:31.388Z,169.31
2023-04-16T03:38:31.390Z,174.57
2023-04-16T03:39:31.378Z,176.93
2023-04-16T03:40:31.401Z,182.71
2023-04-16T03:41:31.421Z,176.90
2023-04-16T03:42:31.416Z,178.50
2023-04-16T03:43:31.436Z,178.65
2023-04-16T03:44:31.416Z,183.71
2023-04-16T03:45:31.466Z,174.27
2023-04-16T03:46:31.466Z,170.12
2023-04-16T03:47:31.507Z,176.36
2023-04-16T03:48:31.467Z,165.38
2023-04-16T03:49:31.466Z,169.07
2023-04-16T03:50:31.468Z,170.56
2023-04-16T03:51:31.469Z,162.12
2023-04-16T03:52:31.487Z,169.93
2023-04-16T03:53:31.493Z,164.08
2023-04-16T03:54:31.485Z,166.42
2023-04-16T03:55:31.504Z,172.15
2023-04-16T03:56:31.520Z,175.75
2023-04-16T03:57:31.502Z,170.21
2023-04-16T03:58:31.554Z,181.90
2023-04-16T03:59:31.532Z,175.46
2023-04-16T04:00:31.542Z,183.54
2023-04-16T04:01:31.549Z,184.81
2023-04-16T04:02:31.682Z,186.92
2023-04-16T04:03:31.644Z,193.35
2023-04-16T04:04:31.630Z,208.73
2023-04-16T04:05:31.608Z,201.08
2023-04-16T04:06:31.572Z,203.15
2023-04-16T04:07:31.647Z,198.63
2023-04-16T04:08:31.647Z,201.33
2023-04-16T04:09:31.651Z,202.57
2023-04-16T04:10:31.722Z,203.39
2023-04-16T04:11:31.604Z,199.07
2023-04-16T04:12:31.622Z,190.41
2023-04-16T04:13:31.656Z,187.45
2023-04-16T04:14:31.651Z,194.50
2023-04-16T04:15:31.685Z,192.54
2023-04-16T04:16:31.702Z,193.93
2023-04-16T04:17:31.691Z,204.01
2023-04-16T04:18:31.657Z,204.76
2023-04-16T04:19:31.716Z,202.00
2023-04-16T04:20:31.676Z,200.07
2023-04-16T04:21:31.688Z,209.71
2023-04-16T04:22:31.670Z,211.46
2023-04-16T04:23:31.710Z,215.31
2023-04-16T04:24:31.800Z,217.42
2023-04-16T04:25:31.701Z,220.35
2023-04-16T04:26:31.785Z,220.23
2023-04-16T04:27:31.721Z,217.67
2023-04-16T04:28:31.728Z,226.76
2023-04-16T04:29:31.750Z,230.90
2023-04-16T04:30:31.778Z,224.61
2023-04-16T04:31:31.782Z,220.87
2023-04-16T04:32:31.769Z,222.92
2023-04-16T04:33:31.767Z,210.70
2023-04-16T04:34:31.761Z,220.20
2023-04-16T04:35:31.785Z,223.79
2023-04-16T04:36:31.786Z,228.75
2023-04-16T04:37:31.747Z,221.11
2023-04-16T04:38:31.795Z,219.50
2023-04-16T04:39:31.813Z,213.98
2023-04-16T04:40:31.754Z,226.30
2023-04-16T04:41:31.771Z,231.46
2023-04-16T04:42:31.811Z,223.14
2023-04-16T04:43:31.770Z,216.97
2023-04-16T04:44:31.768Z,223.82
2023-04-16T04:45:32.192Z,222.42
2023-04-16T04:46:31.801Z,218.46
2023-04-16T04:47:31.827Z,219.68
2023-04-16T04:48:31.798Z,216.53
2023-04-16T04:49:31.795Z,212.90
2023-04-16T04:50:31.822Z,211.89
2023-04-16T04:51:31.792Z,200.95
2023-04-16T04:52:31.784Z,204.13
2023-04-16T04:53:31.817Z,193.22
2023-04-16T04:54:31.828Z,192.11
2023-04-16T04:55:31.852Z,193.49
2023-04-16T04:56:31.824Z,187.08
2023-04-16T04:57:31.815Z,192.54
2023-04-16T04:58:31.824Z,189.69
2023-04-16T04:59:31.828Z,180.51
2023-04-16T05:00:31.788Z,185.68
2023-04-16T05:01:31.812Z,181.68
2023-04-16T05:02:31.876Z,177.74
2023-04-16T05:03:31.913Z,179.30
2023-04-16T05:04:31.812Z,178.80
2023-04-16T05:05:31.798Z,182.61
2023-04-16T05:06:31.831Z,185.92
2023-04-16T05:07:31.798Z,191.19
2023-04-16T05:08:31.805Z,185.94
2023-04-16T05:09:31.809Z,190.46
2023-04-16T05:10:31.809Z,195.81
2023-04-16T05:11:31.760Z,191.47
2023-04-16T05:12:31.818Z,200.86
2023-04-16T05:13:31.841Z,198.79
2023-04-16T05:14:31.891Z,200.03
2023-04-16T05:15:31.841Z,198.59
2023-04-16T05:16:31.862Z,192.53
2023-04-16T05:17:31.871Z,191.50
2023-04-16T05:18:31.799Z,197.59
2023-04-16T05:19:31.827Z,202.27
2023-04-16T05:20:31.813Z,193.69
2023-04-16T05:21:31.813Z,192.86
2023-04-16T05:22:31.758Z,197.11
2023-04-16T05:23:31.941Z,190.26
2023-04-16T05:24:31.799Z,189.48
2023-04-16T05:25:31.825Z,190.91
2023-04-16T05:26:31.821Z,196.47
2023-04-16T05:27:31.783Z,187.11
2023-04-16T05:28:31.779Z,188.01
2023-04-16T05:29:31.852Z,182.40
2023-04-16T05:30:31.864Z,188.61
2023-04-16T05:31:31.853Z,176.31
2023-04-16T05:32:31.838Z,169.89
2023-04-16T05:33:31.800Z,156.45
2023-04-16T05:34:31.780Z,162.48
2023-04-16T05:35:31.761Z,159.42
2023-04-16T05:36:31.783Z,156.08
2023-04-16T05:37:31.808Z,146.03
2023-04-16T05:38:31.756Z,145.61
2023-04-16T05:39:31.801Z,153.00
2023-04-16T05:40:31.789Z,154.44
2023-04-16T05:41:31.832Z,149.64
2023-04-16T05:42:31.809Z,160.35
2023-04-16T05:43:31.739Z,156.16
2023-04-16T05:44:31.760Z,163.73
2023-04-16T05:45:31.828Z,169.48
2023-04-16T05:46:31.793Z,180.30
2023-04-16T05:47:31.821Z,183.16
2023-04-16T05:48:31.766Z,179.19
2023-04-16T05:49:31.752Z,177.12
2023-04-16T05:50:31.779Z,174.07
2023-04-16T05:51:31.716Z,178.55
2023-04-16T05:52:31.727Z,169.48
2023-04-16T05:53:31.729Z,173.84
2023-04-16T05:54:31.748Z,173.87
2023-04-16T05:55:31.739Z,162.61
2023-04-16T05:56:31.742Z,167.31
2023-04-16T05:57:31.744Z,165.94
2023-04-16T05:58:31.729Z,163.71
2023-04-16T05:59:31.721Z,171.80
2023-04-16T06:00:31.682Z,162.67
2023-04-16T06:01:34.245Z,161.86
2023-04-16T06:02:32.127Z,167.97
2023-04-16T06:03:32.066Z,164.60
2023-04-16T06:04:31.962Z,170.94
2023-04-16T06:05:32.026Z,173.13
2023-04-16T06:06:31.918Z,181.68
2023-04-16T06:07:31.978Z,172.88
2023-04-16T06:08:32.004Z,174.71
2023-04-16T06:09:31.934Z,174.62
2023-04-16T06:10:31.916Z,181.29
2023-04-16T06:11:31.956Z,176.71
2023-04-16T06:12:32.021Z,176.34
2023-04-16T06:13:31.955Z,174.61
2023-04-16T06:14:31.960Z,177.14
2023-04-16T06:15:31.938Z,168.08
2023-04-16T06:16:31.984Z,172.38
2023-04-16T06:17:32.056Z,170.72
2023-04-16T06:18:31.953Z,175.53
2023-04-16T06:19:32.015Z,180.18
2023-04-16T06:20:32.019Z,182.74
2023-04-16T06:21:32.109Z,187.52
2023-04-16T06:22:32.084Z,189.46
2023-04-16T06:23:32.078Z,191.12
2023-04-16T06:24:32.096Z,188.35
2023-04-16T06:25:32.103Z,188.99
2023-04-16T06:26:32.134Z,200.17
2023-04-16T06:27:32.210Z,197.77
2023-04-16T06:28:32.347Z,195.12
2023-04-16T06:29:40.445Z,188.11
2023-04-16T06:30:33.312Z,184.73
2023-04-16T06:31:32.797Z,188.48
2023-04-16T06:32:32.386Z,189.37
2023-04-16T06:33:32.300Z,194.99
2023-04-16T06:34:32.263Z,195.01
2023-04-16T06:35:32.317Z,187.72
2023-04-16T06:36:32.293Z,191.89
2023-04-16T06:37:32.292Z,201.82
2023-04-16T06:38:32.307Z,205.16
2023-04-16T06:39:32.289Z,210.17
2023-04-16T06:40:32.417Z,207.03
2023-04-16T06:41:32.411Z,215.05
2023-04-16T06:42:32.458Z,223.69
2023-04-16T06:43:32.480Z,230.21
2023-04-16T06:44:32.560Z,229.26
2023-04-16T06:45:32.590Z,230.76
2023-04-16T06:46:32.674Z,235.95
2023-04-16T06:47:32.713Z,239.69
2023-04-16T06:48:32.768Z,233.62
2023-04-16T06:49:32.811Z,233.99
2023-04-16T06:50:32.909Z,233.76
2023-04-16T06:51:32.936Z,239.83
2023-04-16T06:52:33.000Z,241.34
2023-04-16T06:53:33.048Z,239.14
2023-04-16T06:54:33.103Z,243.22
2023-04-16T06:55:33.175Z,237.59
2023-04-16T06:56:33.242Z,241.02
2023-04-16T06:57:34.649Z,242.08
2023-04-16T06:58:33.344Z,240.58
2023-04-16T06:59:33.419Z,242.28
2023-04-16T07:00:33.558Z,245.67
2023-04-16T07:01:33.613Z,242.02
2023-04-16T07:02:33.705Z,243.44
2023-04-16T07:03:33.759Z,243.63
2023-04-16T07:04:33.716Z,241.85
2023-04-16T07:05:33.793Z,247.52
2023-04-16T07:06:33.849Z,247.46
2023-04-16T07:07:33.917Z,245.36
2023-04-16T07:08:33.947Z,245.79
2023-04-16T07:09:34.058Z,244.66
2023-04-16T07:10:34.075Z,242.68
2023-04-16T07:11:34.148Z,233.61
2023-04-16T07:12:34.310Z,240.86
2023-04-16T07:13:34.316Z,234.09
2023-04-16T07:14:34.404Z,231.56
2023-04-16T07:15:34.412Z,232.15
2023-04-16T07:16:34.560Z,230.70
2023-04-16T07:17:34.537Z,226.46
2023-04-16T07:18:34.626Z,231.86
2023-04-16T07:19:34.666Z,210.35
2023-04-16T07:20:34.677Z,217.04
2023-04-16T07:21:34.756Z,211.29
2023-04-16T07:22:34.959Z,206.61
2023-04-16T07:23:34.874Z,208.67
2023-04-16T07:24:34.949Z,200.16
2023-04-16T07:25:35.016Z,208.20
2023-04-16T07:26:35.072Z,193.15
2023-04-16T07:27:35.205Z,191.98
2023-04-16T07:28:35.213Z,176.79
2023-04-16T07:29:35.262Z,173.88
2023-04-16T07:30:35.409Z,162.18
2023-04-16T07:31:35.392Z,164.26
2023-04-16T07:32:35.494Z,162.07
2023-04-16T07:33:35.474Z,158.68
2023-04-16T07:34:35.566Z,156.89
2023-04-16T07:35:35.583Z,160.06
2023-04-16T07:36:35.656Z,150.61
2023-04-16T07:37:35.703Z,149.35
2023-04-16T07:38:35.766Z,143.42
2023-04-16T07:39:35.815Z,143.95
2023-04-16T07:40:35.896Z,138.79
2023-04-16T07:41:35.939Z,135.95
2023-04-16T07:42:35.993Z,129.93
2023-04-16T07:43:36.025Z,121.72
2023-04-16T07:44:36.117Z,124.40
2023-04-16T07:45:36.203Z,123.70
2023-04-16T07:46:46.316Z,118.86
2023-04-16T07:47:37.335Z,118.73
2023-04-16T07:48:36.289Z,116.93
2023-04-16T07:49:36.182Z,119.80
2023-04-16T07:50:36.189Z,115.06
2023-04-16T07:51:36.155Z,119.05
2023-04-16T07:52:36.209Z,127.43
2023-04-16T07:53:36.177Z,124.91
2023-04-16T07:54:36.190Z,128.62
2023-04-16T07:55:36.139Z,131.25
2023-04-16T07:56:36.205Z,134.99
2023-04-16T07:57:36.207Z,140.64
2023-04-16T07:58:36.230Z,145.54
2023-04-16T07:59:36.313Z,149.88
2023-04-16T08:00:36.347Z,148.61
2023-04-16T08:01:36.427Z,150.50
2023-04-16T08:02:36.612Z,150.97
2023-04-16T08:03:36.676Z,152.40
2023-04-16T08:04:36.668Z,151.10
2023-04-16T08:05:36.586Z,153.00
2023-04-16T08:06:36.610Z,149.41
2023-04-16T08:07:36.682Z,154.85
2023-04-16T08:08:36.706Z,155.66
2023-04-16T08:09:36.753Z,152.95
2023-04-16T08:10:36.847Z,159.64
2023-04-16T08:11:36.831Z,163.02
2023-04-16T08:12:36.916Z,164.50
2023-04-16T08:13:36.980Z,170.79
2023-04-16T08:14:36.982Z,173.94
2023-04-16T08:15:37.055Z,168.94
2023-04-16T08:16:37.086Z,173.30
2023-04-16T08:17:37.129Z,175.53
2023-04-16T08:18:37.167Z,182.34
2023-04-16T08:19:37.223Z,185.00
2023-04-16T08:20:37.281Z,182.84
2023-04-16T08:21:37.243Z,194.65
2023-04-16T08:22:37.307Z,189.71
2023-04-16T08:23:37.337Z,191.66
2023-04-16T08:24:37.386Z,191.88
2023-04-16T08:25:37.474Z,189.84
2023-04-16T08:26:37.463Z,184.28
2023-04-16T08:27:37.532Z,191.78
2023-04-16T08:28:37.568Z,197.67
2023-04-16T08:29:37.599Z,196.87
2023-04-16T08:30:52.338Z,195.03
2023-04-16T08:31:37.691Z,195.40
2023-04-16T08:32:37.642Z,196.74
2023-04-16T08:33:37.589Z,198.09
2023-04-16T08:34:37.603Z,199.01
2023-04-16T08:35:37.694Z,208.12
2023-04-16T08:36:37.589Z,205.52
2023-04-16T08:37:37.534Z,206.83
2023-04-16T08:38:37.658Z,204.73
2023-04-16T08:39:37.556Z,211.19
2023-04-16T08:40:37.569Z,213.35
2023-04-16T08:41:37.569Z,207.71
2023-04-16T08:42:37.577Z,213.40
2023-04-16T08:43:37.503Z,215.44
2023-04-16T08:44:37.498Z,213.30
2023-04-16T08:45:37.589Z,220.15
2023-04-16T08:46:37.520Z,216.90
2023-04-16T08:47:37.588Z,212.46
2023-04-16T08:48:37.528Z,216.03
2023-04-16T08:49:37.526Z,221.24
2023-04-16T08:50:37.472Z,223.22
2023-04-16T08:51:37.477Z,225.60
2023-04-16T08:52:37.509Z,233.77
2023-04-16T08:53:37.437Z,225.86
2023-04-16T08:54:37.454Z,223.62
2023-04-16T08:55:37.457Z,222.49
2023-04-16T08:56:37.463Z,225.38
2023-04-16T08:57:37.484Z,225.22
2023-04-16T08:58:37.445Z,218.57
2023-04-16T08:59:37.450Z,220.96
2023-04-16T09:00:37.448Z,231.65
2023-04-16T09:01:37.490Z,226.99
2023-04-16T09:02:37.753Z,218.23
2023-04-16T09:03:37.508Z,218.10
2023-04-16T09:04:37.523Z,215.62
2023-04-16T09:05:37.389Z,223.26
2023-04-16T09:06:37.438Z,230.52
2023-04-16T09:07:37.430Z,231.04
2023-04-16T09:08:37.354Z,236.18
2023-04-16T09:09:37.332Z,228.66
2023-04-16T09:10:37.490Z,231.15
2023-04-16T09:11:37.348Z,230.21
2023-04-16T09:12:37.318Z,233.87
2023-04-16T09:13:37.439Z,236.33
2023-04-16T09:14:37.344Z,237.32
2023-04-16T09:15:37.358Z,227.86
2023-04-16T09:16:37.399Z,229.52
2023-04-16T09:17:37.340Z,230.83
2023-04-16T09:18:37.305Z,228.38
2023-04-16T09:19:37.304Z,229.25
2023-04-16T09:20:37.283Z,233.74
2023-04-16T09:21:37.292Z,227.94
2023-04-16T09:22:37.277Z,227.92
2023-04-16T09:23:37.294Z,225.33
2023-04-16T09:24:37.265Z,219.16
2023-04-16T09:25:37.257Z,214.49
2023-04-16T09:26:37.250Z,217.94
2023-04-16T09:27:37.242Z,208.93
2023-04-16T09:28:37.227Z,212.41
2023-04-16T09:29:37.263Z,214.06
2023-04-16T09:30:37.208Z,211.32
2023-04-16T09:31:37.239Z,211.90
2023-04-16T09:32:37.283Z,206.50
2023-04-16T09:33:37.195Z,207.62
2023-04-16T09:34:37.196Z,205.77
2023-04-16T09:35:37.197Z,200.96
2023-04-16T09:36:37.200Z,200.80
2023-04-16T09:37:37.190Z,207.35
2023-04-16T09:38:37.190Z,204.58
2023-04-16T09:39:37.122Z,200.01
2023-04-16T09:40:37.139Z,196.87
2023-04-16T09:41:37.150Z,191.05
2023-04-16T09:42:37.146Z,187.79
2023-04-16T09:43:37.132Z,178.73
2023-04-16T09:44:37.138Z,178.63
2023-04-16T09:45:37.129Z,179.40
2023-04-16T09:46:37.091Z,180.74
2023-04-16T09:47:37.303Z,180.20
2023-04-16T09:48:37.092Z,182.51
2023-04-16T09:49:37.096Z,191.47
2023-04-16T09:50:37.124Z,189.15
2023-04-16T09:51:37.075Z,194.60
2023-04-16T09:52:37.113Z,195.64
2023-04-16T09:53:37.088Z,193.69
2023-04-16T09:54:37.029Z,195.39
2023-04-16T09:55:37.045Z,197.17
2023-04-16T09:56:37.061Z,190.92
2023-04-16T09:57:37.120Z,186.03
2023-04-16T09:58:37.020Z,180.84
2023-04-16T09:59:37.895Z,187.13
2023-04-16T10:00:36.976Z,181.96
2023-04-16T10:01:38.210Z,176.23
2023-04-16T10:02:37.027Z,179.55
2023-04-16T10:03:37.252Z,178.44
2023-04-16T10:04:37.024Z,185.98
2023-04-16T10:05:37.005Z,194.73
2023-04-16T10:06:37.042Z,192.34
2023-04-16T10:07:37.017Z,195.81
2023-04-16T10:08:36.924Z,193.31
2023-04-16T10:09:37.021Z,201.22
2023-04-16T10:10:36.949Z,195.33
2023-04-16T10:11:36.959Z,196.27
2023-04-16T10:12:36.946Z,213.34
2023-04-16T10:13:36.914Z,205.38
2023-04-16T10:14:36.924Z,204.01
2023-04-16T10:15:36.879Z,207.28
2023-04-16T10:16:37.018Z,205.54
2023-04-16T10:17:36.879Z,210.13
2023-04-16T10:18:36.921Z,212.77
2023-04-16T10:19:36.897Z,210.10
2023-04-16T10:20:36.854Z,219.61
2023-04-16T10:21:36.869Z,216.53
2023-04-16T10:22:36.864Z,226.01
2023-04-16T10:23:36.874Z,237.94
2023-04-16T10:24:36.924Z,235.42
2023-04-16T10:25:36.940Z,223.38
2023-04-16T10:26:37.050Z,224.86
2023-04-16T10:27:37.115Z,217.12
2023-04-16T10:28:37.183Z,236.64
2023-04-16T10:29:37.259Z,234.14
2023-04-16T10:30:37.303Z,229.21
2023-04-16T10:31:37.338Z,238.67
2023-04-16T10:32:37.449Z,230.80
2023-04-16T10:33:37.459Z,234.88
2023-04-16T10:34:37.565Z,225.36
2023-04-16T10:35:37.584Z,234.28
2023-04-16T10:36:37.722Z,218.12
2023-04-16T10:37:37.741Z,237.18
2023-04-16T10:38:37.806Z,215.97
2023-04-16T10:39:37.852Z,205.91
2023-04-16T10:40:37.966Z,203.21
2023-04-16T10:41:37.959Z,202.15
2023-04-16T10:42:38.066Z,203.53
2023-04-16T10:43:38.086Z,213.53
2023-04-16T10:44:38.132Z,213.19
2023-04-16T10:45:38.199Z,219.48
2023-04-16T10:46:38.338Z,220.99
2023-04-16T10:47:38.339Z,223.30
2023-04-16T10:48:46.768Z,225.05
2023-04-16T10:49:39.410Z,214.95
2023-04-16T10:50:38.388Z,210.03
2023-04-16T10:51:38.395Z,216.54
2023-04-16T10:52:38.342Z,225.69
2023-04-16T10:53:38.407Z,211.47
2023-04-16T10:54:38.354Z,220.13
2023-04-16T10:55:38.322Z,216.38
2023-04-16T10:56:38.444Z,219.32
2023-04-16T10:57:38.470Z,201.28
2023-04-16T10:58:38.493Z,200.07
2023-04-16T10:59:38.600Z,204.36
2023-04-16T11:00:38.600Z,206.14
2023-04-16T11:01:38.695Z,210.21
2023-04-16T11:02:38.838Z,203.64
2023-04-16T11:03:38.940Z,207.71
2023-04-16T11:04:39.078Z,205.99
2023-04-16T11:05:38.901Z,212.98
2023-04-16T11:06:38.953Z,206.34
2023-04-16T11:07:39.021Z,206.41
2023-04-16T11:08:51.209Z,206.54
2023-04-16T11:09:40.056Z,202.24
2023-04-16T11:10:39.047Z,207.43
2023-04-16T11:11:39.089Z,209.37
2023-04-16T11:12:39.129Z,215.79
2023-04-16T11:13:39.062Z,208.98
2023-04-16T11:14:39.061Z,206.57
2023-04-16T11:15:39.041Z,203.28
2023-04-16T11:16:39.015Z,209.10
2023-04-16T11:17:39.170Z,200.47
2023-04-16T11:18:41.627Z,198.38
2023-04-16T11:19:40.243Z,198.59
2023-04-16T11:20:39.100Z,197.99
2023-04-16T11:21:39.136Z,190.13
2023-04-16T11:22:39.184Z,190.90
2023-04-16T11:23:39.126Z,192.71
2023-04-16T11:24:39.057Z,194.15
2023-04-16T11:25:39.098Z,185.73
2023-04-16T11:26:39.094Z,181.11
2023-04-16T11:27:39.182Z,184.88
2023-04-16T11:28:39.195Z,179.29
2023-04-16T11:29:39.260Z,176.50
2023-04-16T11:30:39.326Z,180.61
2023-04-16T11:31:39.439Z,178.76
2023-04-16T11:32:39.522Z,187.78
2023-04-16T11:33:39.549Z,168.58
2023-04-16T11:34:39.564Z,177.63
2023-04-16T11:35:39.627Z,169.84
2023-04-16T11:36:39.659Z,175.69
2023-04-16T11:37:39.785Z,186.47
2023-04-16T11:38:39.839Z,178.00
2023-04-16T11:39:39.899Z,170.95
2023-04-16T11:40:39.963Z,167.05
2023-04-16T11:41:40.008Z,167.35
2023-04-16T11:42:40.118Z,178.80
2023-04-16T11:43:40.114Z,179.96
2023-04-16T11:44:40.187Z,187.23
2023-04-16T11:45:40.246Z,196.07
2023-04-16T11:46:40.458Z,197.90
2023-04-16T11:47:40.403Z,192.11
2023-04-16T11:48:40.445Z,188.23
2023-04-16T11:49:40.455Z,196.41
2023-04-16T11:50:40.567Z,193.73
2023-04-16T11:51:40.568Z,201.25
2023-04-16T11:52:40.656Z,189.66
2023-04-16T11:53:40.699Z,188.76
2023-04-16T11:54:40.809Z,196.92
2023-04-16T11:55:40.878Z,194.17
2023-04-16T11:56:40.933Z,188.95
2023-04-16T11:57:40.995Z,199.43
2023-04-16T11:58:43.302Z,198.39
2023-04-16T12:00:01.635Z,206.20
2023-04-16T12:00:42.143Z,203.44
2023-04-16T12:01:41.162Z,201.25
2023-04-16T12:02:41.258Z,200.90
2023-04-16T12:03:41.348Z,197.23
2023-04-16T12:04:41.212Z,201.88
2023-04-16T12:05:41.094Z,211.96
2023-04-16T12:06:41.112Z,207.83
2023-04-16T12:07:41.102Z,207.83
2023-04-16T12:08:41.193Z,195.01
2023-04-16T12:09:41.277Z,205.52
2023-04-16T12:10:41.288Z,194.35
2023-04-16T12:11:41.348Z,191.76
2023-04-16T12:12:41.418Z,196.11
2023-04-16T12:13:41.467Z,204.25
2023-04-16T12:14:41.492Z,199.59
2023-04-16T12:15:41.563Z,193.17
2023-04-16T12:16:41.660Z,198.51
2023-04-16T12:17:41.715Z,181.40
2023-04-16T12:18:41.754Z,186.76
2023-04-16T12:19:41.917Z,196.34
2023-04-16T12:20:41.863Z,197.76
2023-04-16T12:21:41.958Z,199.04
2023-04-16T12:22:41.993Z,194.73
2023-04-16T12:23:42.090Z,194.97
2023-04-16T12:24:42.152Z,181.42
2023-04-16T12:25:42.241Z,180.23
2023-04-16T12:26:42.249Z,170.73
2023-04-16T12:27:42.281Z,174.46
2023-04-16T12:28:42.376Z,165.55